sensor_id;sensor_type;location;lat;lon;timestamp;temperature;humidity
53268;DHT22;39156;51.176;6.738;2023-08-12T00:00:49;22.60;79.90
53268;DHT22;39156;51.176;6.738;2023-08-12T00:03:15;22.60;79.50
53268;DHT22;39156;51.176;6.738;2023-08-12T00:05:41;22.60;79.60
53268;DHT22;39156;51.176;6.738;2023-08-12T00:08:08;22.60;79.80
53268;DHT22;39156;51.176;6.738;2023-08-12T00:10:34;22.60;80.00
53268;DHT22;39156;51.176;6.738;2023-08-12T00:13:00;22.60;80.00
53268;DHT22;39156;51.176;6.738;2023-08-12T00:15:25;22.60;79.80
53268;DHT22;39156;51.176;6.738;2023-08-12T00:17:52;22.60;79.80
53268;DHT22;39156;51.176;6.738;2023-08-12T00:20:18;22.60;79.80
53268;DHT22;39156;51.176;6.738;2023-08-12T00:22:43;22.60;79.90
53268;DHT22;39156;51.176;6.738;2023-08-12T00:25:09;22.60;80.00
53268;DHT22;39156;51.176;6.738;2023-08-12T00:27:36;22.60;80.00
53268;DHT22;39156;51.176;6.738;2023-08-12T00:30:03;22.60;79.90
53268;DHT22;39156;51.176;6.738;2023-08-12T00:32:30;22.60;79.70
53268;DHT22;39156;51.176;6.738;2023-08-12T00:34:56;22.60;79.70
53268;DHT22;39156;51.176;6.738;2023-08-12T00:37:22;22.60;79.60
53268;DHT22;39156;51.176;6.738;2023-08-12T00:39:47;22.60;79.80
53268;DHT22;39156;51.176;6.738;2023-08-12T00:42:13;22.60;79.90
53268;DHT22;39156;51.176;6.738;2023-08-12T00:44:39;22.50;80.00
53268;DHT22;39156;51.176;6.738;2023-08-12T00:47:05;22.50;80.50
53268;DHT22;39156;51.176;6.738;2023-08-12T00:49:32;22.50;79.90
53268;DHT22;39156;51.176;6.738;2023-08-12T00:51:58;22.40;79.70
53268;DHT22;39156;51.176;6.738;2023-08-12T00:54:26;22.30;79.50
53268;DHT22;39156;51.176;6.738;2023-08-12T00:56:53;22.30;79.80
53268;DHT22;39156;51.176;6.738;2023-08-12T00:59:20;22.30;80.10
53268;DHT22;39156;51.176;6.738;2023-08-12T01:01:46;22.20;80.30
53268;DHT22;39156;51.176;6.738;2023-08-12T01:04:13;22.10;80.40
53268;DHT22;39156;51.176;6.738;2023-08-12T01:06:38;22.10;80.60
53268;DHT22;39156;51.176;6.738;2023-08-12T01:09:05;22.10;80.80
53268;DHT22;39156;51.176;6.738;2023-08-12T01:11:57;22.10;81.20
53268;DHT22;39156;51.176;6.738;2023-08-12T01:17:09;22.00;81.50
53268;DHT22;39156;51.176;6.738;2023-08-12T01:19:38;22.00;81.20
53268;DHT22;39156;51.176;6.738;2023-08-12T01:22:08;22.00;81.50
53268;DHT22;39156;51.176;6.738;2023-08-12T01:24:39;21.90;82.00
53268;DHT22;39156;51.176;6.738;2023-08-12T01:27:07;21.90;81.80
53268;DHT22;39156;51.176;6.738;2023-08-12T01:29:34;21.90;81.80
53268;DHT22;39156;51.176;6.738;2023-08-12T01:32:12;21.90;82.00
53268;DHT22;39156;51.176;6.738;2023-08-12T01:35:01;21.90;82.50
53268;DHT22;39156;51.176;6.738;2023-08-12T01:37:31;21.90;82.50
53268;DHT22;39156;51.176;6.738;2023-08-12T01:40:00;21.90;82.20
53268;DHT22;39156;51.176;6.738;2023-08-12T01:42:30;21.90;82.30
53268;DHT22;39156;51.176;6.738;2023-08-12T01:45:00;21.90;82.40
53268;DHT22;39156;51.176;6.738;2023-08-12T01:47:29;21.80;82.20
53268;DHT22;39156;51.176;6.738;2023-08-12T01:49:56;21.80;82.40
53268;DHT22;39156;51.176;6.738;2023-08-12T01:52:21;21.80;82.40
53268;DHT22;39156;51.176;6.738;2023-08-12T01:54:47;21.90;82.50
53268;DHT22;39156;51.176;6.738;2023-08-12T01:57:13;21.80;82.50
53268;DHT22;39156;51.176;6.738;2023-08-12T01:59:38;21.80;82.40
53268;DHT22;39156;51.176;6.738;2023-08-12T02:02:05;21.80;82.40
53268;DHT22;39156;51.176;6.738;2023-08-12T02:04:31;21.80;82.30
53268;DHT22;39156;51.176;6.738;2023-08-12T02:06:56;21.80;82.30
53268;DHT22;39156;51.176;6.738;2023-08-12T02:09:22;21.90;82.50
53268;DHT22;39156;51.176;6.738;2023-08-12T02:11:49;21.80;82.50
53268;DHT22;39156;51.176;6.738;2023-08-12T02:14:15;21.70;82.40
53268;DHT22;39156;51.176;6.738;2023-08-12T02:16:41;21.80;82.40
53268;DHT22;39156;51.176;6.738;2023-08-12T02:19:06;21.70;82.30
53268;DHT22;39156;51.176;6.738;2023-08-12T02:21:32;21.80;82.50
53268;DHT22;39156;51.176;6.738;2023-08-12T02:23:58;21.70;82.50
53268;DHT22;39156;51.176;6.738;2023-08-12T02:26:24;21.70;82.70
53268;DHT22;39156;51.176;6.738;2023-08-12T02:28:49;21.70;83.10
53268;DHT22;39156;51.176;6.738;2023-08-12T02:31:15;21.70;83.00
53268;DHT22;39156;51.176;6.738;2023-08-12T02:33:42;21.70;82.90
53268;DHT22;39156;51.176;6.738;2023-08-12T02:36:07;21.70;83.00
53268;DHT22;39156;51.176;6.738;2023-08-12T02:38:33;21.70;83.20
53268;DHT22;39156;51.176;6.738;2023-08-12T02:40:59;21.70;83.20
53268;DHT22;39156;51.176;6.738;2023-08-12T02:43:25;21.70;83.10
53268;DHT22;39156;51.176;6.738;2023-08-12T02:45:51;21.70;83.20
53268;DHT22;39156;51.176;6.738;2023-08-12T02:48:17;21.70;83.90
53268;DHT22;39156;51.176;6.738;2023-08-12T02:50:42;21.70;83.10
53268;DHT22;39156;51.176;6.738;2023-08-12T02:53:08;21.60;83.00
53268;DHT22;39156;51.176;6.738;2023-08-12T02:55:34;21.60;83.10
53268;DHT22;39156;51.176;6.738;2023-08-12T02:58:01;21.60;83.20
53268;DHT22;39156;51.176;6.738;2023-08-12T03:00:27;21.60;83.30
53268;DHT22;39156;51.176;6.738;2023-08-12T03:02:53;21.60;83.30
53268;DHT22;39156;51.176;6.738;2023-08-12T03:05:19;21.60;83.30
53268;DHT22;39156;51.176;6.738;2023-08-12T03:07:45;21.50;83.30
53268;DHT22;39156;51.176;6.738;2023-08-12T03:10:11;21.60;83.40
53268;DHT22;39156;51.176;6.738;2023-08-12T03:12:37;21.50;83.50
53268;DHT22;39156;51.176;6.738;2023-08-12T03:15:04;21.40;83.60
53268;DHT22;39156;51.176;6.738;2023-08-12T03:17:31;21.40;83.60
53268;DHT22;39156;51.176;6.738;2023-08-12T03:19:57;21.40;83.80
53268;DHT22;39156;51.176;6.738;2023-08-12T03:22:29;21.30;83.80
53268;DHT22;39156;51.176;6.738;2023-08-12T03:24:55;21.30;84.30
53268;DHT22;39156;51.176;6.738;2023-08-12T03:27:21;21.30;84.10
53268;DHT22;39156;51.176;6.738;2023-08-12T03:29:46;21.30;84.20
53268;DHT22;39156;51.176;6.738;2023-08-12T03:32:13;21.30;84.30
53268;DHT22;39156;51.176;6.738;2023-08-12T03:34:39;21.30;84.40
53268;DHT22;39156;51.176;6.738;2023-08-12T03:37:04;21.30;84.40
53268;DHT22;39156;51.176;6.738;2023-08-12T03:39:30;21.30;84.50
53268;DHT22;39156;51.176;6.738;2023-08-12T03:41:56;21.30;84.50
53268;DHT22;39156;51.176;6.738;2023-08-12T03:44:22;21.30;84.60
53268;DHT22;39156;51.176;6.738;2023-08-12T03:46:47;21.30;84.60
53268;DHT22;39156;51.176;6.738;2023-08-12T03:49:13;21.30;84.70
53268;DHT22;39156;51.176;6.738;2023-08-12T03:51:39;21.30;84.80
53268;DHT22;39156;51.176;6.738;2023-08-12T03:54:05;21.20;85.00
53268;DHT22;39156;51.176;6.738;2023-08-12T03:56:31;21.20;84.90
53268;DHT22;39156;51.176;6.738;2023-08-12T03:58:56;21.20;85.00
53268;DHT22;39156;51.176;6.738;2023-08-12T04:01:22;21.20;85.00
53268;DHT22;39156;51.176;6.738;2023-08-12T04:03:48;21.10;85.00
53268;DHT22;39156;51.176;6.738;2023-08-12T04:06:15;21.10;84.90
53268;DHT22;39156;51.176;6.738;2023-08-12T04:08:40;21.10;84.40
53268;DHT22;39156;51.176;6.738;2023-08-12T04:11:06;21.10;84.70
53268;DHT22;39156;51.176;6.738;2023-08-12T04:13:32;21.10;84.90
53268;DHT22;39156;51.176;6.738;2023-08-12T04:15:57;21.00;84.90
53268;DHT22;39156;51.176;6.738;2023-08-12T04:18:23;20.90;85.00
53268;DHT22;39156;51.176;6.738;2023-08-12T04:20:49;20.90;85.10
53268;DHT22;39156;51.176;6.738;2023-08-12T04:23:16;20.90;85.30
53268;DHT22;39156;51.176;6.738;2023-08-12T04:25:48;20.90;85.40
53268;DHT22;39156;51.176;6.738;2023-08-12T04:28:15;20.80;85.90
53268;DHT22;39156;51.176;6.738;2023-08-12T04:30:45;20.90;85.60
53268;DHT22;39156;51.176;6.738;2023-08-12T04:33:13;20.90;85.50
53268;DHT22;39156;51.176;6.738;2023-08-12T04:35:40;20.90;85.40
53268;DHT22;39156;51.176;6.738;2023-08-12T04:38:06;20.90;85.50
53268;DHT22;39156;51.176;6.738;2023-08-12T04:40:32;20.90;85.50
53268;DHT22;39156;51.176;6.738;2023-08-12T04:42:59;20.90;85.50
53268;DHT22;39156;51.176;6.738;2023-08-12T04:45:25;20.90;85.50
53268;DHT22;39156;51.176;6.738;2023-08-12T04:47:51;20.90;85.60
53268;DHT22;39156;51.176;6.738;2023-08-12T04:50:17;20.90;85.60
53268;DHT22;39156;51.176;6.738;2023-08-12T04:52:43;20.90;85.60
53268;DHT22;39156;51.176;6.738;2023-08-12T04:55:09;21.00;85.60
53268;DHT22;39156;51.176;6.738;2023-08-12T04:57:38;20.90;85.50
53268;DHT22;39156;51.176;6.738;2023-08-12T05:00:05;21.00;85.70
53268;DHT22;39156;51.176;6.738;2023-08-12T05:02:34;21.00;85.80
53268;DHT22;39156;51.176;6.738;2023-08-12T05:04:59;21.00;85.90
53268;DHT22;39156;51.176;6.738;2023-08-12T05:07:26;21.00;85.90
53268;DHT22;39156;51.176;6.738;2023-08-12T05:09:52;21.00;85.80
53268;DHT22;39156;51.176;6.738;2023-08-12T05:12:17;21.00;85.60
53268;DHT22;39156;51.176;6.738;2023-08-12T05:14:43;21.10;85.60
53268;DHT22;39156;51.176;6.738;2023-08-12T05:17:09;21.00;85.50
53268;DHT22;39156;51.176;6.738;2023-08-12T05:19:34;21.00;85.50
53268;DHT22;39156;51.176;6.738;2023-08-12T05:22:00;21.00;85.50
53268;DHT22;39156;51.176;6.738;2023-08-12T05:24:26;21.00;85.60
53268;DHT22;39156;51.176;6.738;2023-08-12T05:26:51;21.10;85.70
53268;DHT22;39156;51.176;6.738;2023-08-12T05:29:17;21.00;85.70
53268;DHT22;39156;51.176;6.738;2023-08-12T05:31:43;21.00;85.80
53268;DHT22;39156;51.176;6.738;2023-08-12T05:34:08;21.00;85.80
53268;DHT22;39156;51.176;6.738;2023-08-12T05:36:35;21.00;85.70
53268;DHT22;39156;51.176;6.738;2023-08-12T05:39:01;20.90;85.80
53268;DHT22;39156;51.176;6.738;2023-08-12T05:41:28;20.90;85.60
53268;DHT22;39156;51.176;6.738;2023-08-12T05:43:54;20.90;85.70
53268;DHT22;39156;51.176;6.738;2023-08-12T05:46:19;20.90;85.80
53268;DHT22;39156;51.176;6.738;2023-08-12T05:48:45;20.90;86.00
53268;DHT22;39156;51.176;6.738;2023-08-12T05:51:11;20.90;86.00
53268;DHT22;39156;51.176;6.738;2023-08-12T05:53:36;20.90;85.90
53268;DHT22;39156;51.176;6.738;2023-08-12T05:56:02;20.90;86.00
53268;DHT22;39156;51.176;6.738;2023-08-12T05:58:28;20.90;85.90
53268;DHT22;39156;51.176;6.738;2023-08-12T06:00:54;20.90;86.10
53268;DHT22;39156;51.176;6.738;2023-08-12T06:03:19;20.90;86.20
53268;DHT22;39156;51.176;6.738;2023-08-12T06:05:46;20.90;86.30
53268;DHT22;39156;51.176;6.738;2023-08-12T06:08:13;20.90;86.20
53268;DHT22;39156;51.176;6.738;2023-08-12T06:10:39;20.90;86.20
53268;DHT22;39156;51.176;6.738;2023-08-12T06:13:05;20.90;86.20
53268;DHT22;39156;51.176;6.738;2023-08-12T06:15:31;20.80;86.20
53268;DHT22;39156;51.176;6.738;2023-08-12T06:17:59;20.80;86.10
53268;DHT22;39156;51.176;6.738;2023-08-12T06:20:25;20.80;86.20
53268;DHT22;39156;51.176;6.738;2023-08-12T06:22:52;20.70;86.30
53268;DHT22;39156;51.176;6.738;2023-08-12T06:25:18;20.70;86.40
53268;DHT22;39156;51.176;6.738;2023-08-12T06:27:44;20.60;86.50
53268;DHT22;39156;51.176;6.738;2023-08-12T06:30:11;20.70;87.20
53268;DHT22;39156;51.176;6.738;2023-08-12T06:32:37;20.60;86.50
53268;DHT22;39156;51.176;6.738;2023-08-12T06:35:03;20.60;86.80
53268;DHT22;39156;51.176;6.738;2023-08-12T06:37:29;20.60;87.00
53268;DHT22;39156;51.176;6.738;2023-08-12T06:39:55;20.50;87.10
53268;DHT22;39156;51.176;6.738;2023-08-12T06:42:21;20.50;87.20
53268;DHT22;39156;51.176;6.738;2023-08-12T06:44:54;20.50;87.60
53268;DHT22;39156;51.176;6.738;2023-08-12T06:47:23;20.50;88.00
53268;DHT22;39156;51.176;6.738;2023-08-12T06:49:49;20.50;87.80
53268;DHT22;39156;51.176;6.738;2023-08-12T06:52:15;20.50;87.80
53268;DHT22;39156;51.176;6.738;2023-08-12T06:54:41;20.50;88.00
53268;DHT22;39156;51.176;6.738;2023-08-12T06:57:07;20.50;88.20
53268;DHT22;39156;51.176;6.738;2023-08-12T06:59:33;20.50;88.30
53268;DHT22;39156;51.176;6.738;2023-08-12T07:01:58;20.60;88.50
53268;DHT22;39156;51.176;6.738;2023-08-12T07:04:24;20.70;88.70
53268;DHT22;39156;51.176;6.738;2023-08-12T07:06:50;20.80;88.80
53268;DHT22;39156;51.176;6.738;2023-08-12T07:09:16;20.90;88.60
53268;DHT22;39156;51.176;6.738;2023-08-12T07:11:42;21.00;88.40
53268;DHT22;39156;51.176;6.738;2023-08-12T07:14:07;21.00;88.10
53268;DHT22;39156;51.176;6.738;2023-08-12T07:16:33;21.10;87.70
53268;DHT22;39156;51.176;6.738;2023-08-12T07:18:59;21.20;87.70
53268;DHT22;39156;51.176;6.738;2023-08-12T07:21:24;21.30;87.80
53268;DHT22;39156;51.176;6.738;2023-08-12T07:23:50;21.30;87.90
53268;DHT22;39156;51.176;6.738;2023-08-12T07:26:16;21.40;87.90
53268;DHT22;39156;51.176;6.738;2023-08-12T07:28:41;21.50;87.50
53268;DHT22;39156;51.176;6.738;2023-08-12T07:31:07;21.50;87.20
53268;DHT22;39156;51.176;6.738;2023-08-12T07:33:34;21.60;87.00
53268;DHT22;39156;51.176;6.738;2023-08-12T07:35:59;21.60;86.70
53268;DHT22;39156;51.176;6.738;2023-08-12T07:38:26;21.70;86.90
53268;DHT22;39156;51.176;6.738;2023-08-12T07:40:51;21.80;87.00
53268;DHT22;39156;51.176;6.738;2023-08-12T07:43:17;21.90;86.70
53268;DHT22;39156;51.176;6.738;2023-08-12T07:45:43;21.90;87.10
53268;DHT22;39156;51.176;6.738;2023-08-12T07:48:08;21.90;86.00
53268;DHT22;39156;51.176;6.738;2023-08-12T07:50:34;22.00;85.70
53268;DHT22;39156;51.176;6.738;2023-08-12T07:53:00;22.00;85.70
53268;DHT22;39156;51.176;6.738;2023-08-12T07:55:27;22.00;85.50
53268;DHT22;39156;51.176;6.738;2023-08-12T07:57:53;22.00;85.40
53268;DHT22;39156;51.176;6.738;2023-08-12T08:00:19;22.00;85.20
53268;DHT22;39156;51.176;6.738;2023-08-12T08:02:45;22.00;85.20
53268;DHT22;39156;51.176;6.738;2023-08-12T08:05:10;22.00;85.20
53268;DHT22;39156;51.176;6.738;2023-08-12T08:07:36;22.00;85.00
53268;DHT22;39156;51.176;6.738;2023-08-12T08:10:02;22.00;85.00
53268;DHT22;39156;51.176;6.738;2023-08-12T08:12:28;22.00;85.10
53268;DHT22;39156;51.176;6.738;2023-08-12T08:14:54;22.00;85.20
53268;DHT22;39156;51.176;6.738;2023-08-12T08:17:19;22.00;85.60
53268;DHT22;39156;51.176;6.738;2023-08-12T08:19:45;22.00;85.60
53268;DHT22;39156;51.176;6.738;2023-08-12T08:22:11;22.00;85.10
53268;DHT22;39156;51.176;6.738;2023-08-12T08:24:37;22.10;85.70
53268;DHT22;39156;51.176;6.738;2023-08-12T08:27:03;22.20;85.80
53268;DHT22;39156;51.176;6.738;2023-08-12T08:29:30;22.30;85.70
53268;DHT22;39156;51.176;6.738;2023-08-12T08:31:55;22.50;85.20
53268;DHT22;39156;51.176;6.738;2023-08-12T08:34:21;22.50;84.70
53268;DHT22;39156;51.176;6.738;2023-08-12T08:36:47;22.60;84.60
53268;DHT22;39156;51.176;6.738;2023-08-12T08:39:12;22.70;84.10
53268;DHT22;39156;51.176;6.738;2023-08-12T08:41:39;22.80;83.70
53268;DHT22;39156;51.176;6.738;2023-08-12T08:44:07;22.80;83.60
53268;DHT22;39156;51.176;6.738;2023-08-12T08:46:34;22.80;83.30
53268;DHT22;39156;51.176;6.738;2023-08-12T08:49:00;22.90;83.20
53268;DHT22;39156;51.176;6.738;2023-08-12T08:51:27;22.90;83.00
53268;DHT22;39156;51.176;6.738;2023-08-12T08:53:56;23.00;83.10
53268;DHT22;39156;51.176;6.738;2023-08-12T08:56:22;23.00;82.50
53268;DHT22;39156;51.176;6.738;2023-08-12T08:58:48;23.00;82.50
53268;DHT22;39156;51.176;6.738;2023-08-12T09:01:15;23.00;82.50
53268;DHT22;39156;51.176;6.738;2023-08-12T09:03:43;22.90;82.40
53268;DHT22;39156;51.176;6.738;2023-08-12T09:06:09;22.90;82.80
53268;DHT22;39156;51.176;6.738;2023-08-12T09:08:36;22.90;82.60
53268;DHT22;39156;51.176;6.738;2023-08-12T09:11:03;22.80;82.90
53268;DHT22;39156;51.176;6.738;2023-08-12T09:13:29;22.80;83.10
53268;DHT22;39156;51.176;6.738;2023-08-12T09:15:55;22.80;83.30
53268;DHT22;39156;51.176;6.738;2023-08-12T09:18:21;22.90;83.40
53268;DHT22;39156;51.176;6.738;2023-08-12T09:20:50;22.90;83.50
53268;DHT22;39156;51.176;6.738;2023-08-12T09:23:17;22.90;83.60
53268;DHT22;39156;51.176;6.738;2023-08-12T09:25:44;22.90;83.50
53268;DHT22;39156;51.176;6.738;2023-08-12T09:28:11;23.00;83.80
53268;DHT22;39156;51.176;6.738;2023-08-12T09:30:38;23.10;84.00
53268;DHT22;39156;51.176;6.738;2023-08-12T09:33:06;23.10;84.10
53268;DHT22;39156;51.176;6.738;2023-08-12T09:35:38;23.30;84.40
53268;DHT22;39156;51.176;6.738;2023-08-12T09:38:07;23.40;83.50
53268;DHT22;39156;51.176;6.738;2023-08-12T09:40:36;23.50;83.50
53268;DHT22;39156;51.176;6.738;2023-08-12T09:43:03;23.60;82.80
53268;DHT22;39156;51.176;6.738;2023-08-12T09:45:30;23.60;81.90
53268;DHT22;39156;51.176;6.738;2023-08-12T09:47:57;23.70;81.60
53268;DHT22;39156;51.176;6.738;2023-08-12T09:50:24;23.70;81.50
53268;DHT22;39156;51.176;6.738;2023-08-12T09:52:52;23.70;81.70
53268;DHT22;39156;51.176;6.738;2023-08-12T09:55:19;23.70;81.40
53268;DHT22;39156;51.176;6.738;2023-08-12T09:57:51;23.70;81.20
53268;DHT22;39156;51.176;6.738;2023-08-12T10:00:19;23.70;81.40
53268;DHT22;39156;51.176;6.738;2023-08-12T10:02:47;23.70;81.30
53268;DHT22;39156;51.176;6.738;2023-08-12T10:05:34;23.70;81.40
53268;DHT22;39156;51.176;6.738;2023-08-12T10:08:00;23.80;81.40
53268;DHT22;39156;51.176;6.738;2023-08-12T10:10:30;23.90;81.70
53268;DHT22;39156;51.176;6.738;2023-08-12T10:12:58;23.90;80.60
53268;DHT22;39156;51.176;6.738;2023-08-12T10:15:24;24.00;80.60
53268;DHT22;39156;51.176;6.738;2023-08-12T10:17:51;24.10;80.80
53268;DHT22;39156;51.176;6.738;2023-08-12T10:20:22;24.00;80.20
53268;DHT22;39156;51.176;6.738;2023-08-12T10:22:49;24.10;79.70
53268;DHT22;39156;51.176;6.738;2023-08-12T10:25:15;24.00;79.90
53268;DHT22;39156;51.176;6.738;2023-08-12T10:27:43;24.00;80.00
53268;DHT22;39156;51.176;6.738;2023-08-12T10:30:09;24.00;79.60
53268;DHT22;39156;51.176;6.738;2023-08-12T10:32:36;24.00;79.60
53268;DHT22;39156;51.176;6.738;2023-08-12T10:35:03;24.00;80.00
53268;DHT22;39156;51.176;6.738;2023-08-12T10:37:31;24.10;80.10
53268;DHT22;39156;51.176;6.738;2023-08-12T10:39:58;24.20;80.30
53268;DHT22;39156;51.176;6.738;2023-08-12T10:42:43;24.10;80.00
53268;DHT22;39156;51.176;6.738;2023-08-12T10:45:12;24.20;79.60
53268;DHT22;39156;51.176;6.738;2023-08-12T10:47:42;24.20;79.70
53268;DHT22;39156;51.176;6.738;2023-08-12T10:50:22;24.20;79.40
53268;DHT22;39156;51.176;6.738;2023-08-12T10:52:54;24.10;79.90
53268;DHT22;39156;51.176;6.738;2023-08-12T10:55:24;24.10;80.00
53268;DHT22;39156;51.176;6.738;2023-08-12T10:57:53;23.90;80.00
53268;DHT22;39156;51.176;6.738;2023-08-12T11:00:23;23.80;80.70
53268;DHT22;39156;51.176;6.738;2023-08-12T11:02:53;23.70;80.70
53268;DHT22;39156;51.176;6.738;2023-08-12T11:05:22;23.60;81.10
53268;DHT22;39156;51.176;6.738;2023-08-12T11:07:56;23.60;81.80
53268;DHT22;39156;51.176;6.738;2023-08-12T11:10:25;23.60;81.80
53268;DHT22;39156;51.176;6.738;2023-08-12T11:15:18;23.70;81.80
53268;DHT22;39156;51.176;6.738;2023-08-12T11:17:47;23.60;81.40
53268;DHT22;39156;51.176;6.738;2023-08-12T11:20:13;23.70;81.70
53268;DHT22;39156;51.176;6.738;2023-08-12T11:22:41;23.80;82.10
53268;DHT22;39156;51.176;6.738;2023-08-12T11:25:10;23.90;82.20
53268;DHT22;39156;51.176;6.738;2023-08-12T11:27:45;23.90;82.50
53268;DHT22;39156;51.176;6.738;2023-08-12T11:30:17;24.10;82.10
53268;DHT22;39156;51.176;6.738;2023-08-12T11:32:48;24.30;82.20
53268;DHT22;39156;51.176;6.738;2023-08-12T11:35:17;24.50;82.10
53268;DHT22;39156;51.176;6.738;2023-08-12T11:37:52;24.70;82.20
53268;DHT22;39156;51.176;6.738;2023-08-12T11:40:19;24.90;81.20
53268;DHT22;39156;51.176;6.738;2023-08-12T11:42:49;25.00;80.70
53268;DHT22;39156;51.176;6.738;2023-08-12T11:45:18;25.10;80.00
53268;DHT22;39156;51.176;6.738;2023-08-12T11:47:45;25.20;79.70
53268;DHT22;39156;51.176;6.738;2023-08-12T11:50:18;25.30;79.30
53268;DHT22;39156;51.176;6.738;2023-08-12T11:52:46;25.40;79.00
53268;DHT22;39156;51.176;6.738;2023-08-12T11:55:12;25.50;78.90
53268;DHT22;39156;51.176;6.738;2023-08-12T11:57:41;25.70;78.10
53268;DHT22;39156;51.176;6.738;2023-08-12T12:00:10;25.80;77.70
53268;DHT22;39156;51.176;6.738;2023-08-12T12:02:48;25.90;77.30
53268;DHT22;39156;51.176;6.738;2023-08-12T12:05:16;26.00;76.70
53268;DHT22;39156;51.176;6.738;2023-08-12T12:07:42;26.00;76.70
53268;DHT22;39156;51.176;6.738;2023-08-12T12:10:33;26.10;76.30
53268;DHT22;39156;51.176;6.738;2023-08-12T12:13:00;26.10;75.80
53268;DHT22;39156;51.176;6.738;2023-08-12T12:15:26;26.10;75.80
53268;DHT22;39156;51.176;6.738;2023-08-12T12:17:52;26.10;75.50
53268;DHT22;39156;51.176;6.738;2023-08-12T12:20:18;26.00;75.20
53268;DHT22;39156;51.176;6.738;2023-08-12T12:22:47;25.90;76.00
53268;DHT22;39156;51.176;6.738;2023-08-12T12:25:14;25.90;75.90
53268;DHT22;39156;51.176;6.738;2023-08-12T12:27:42;25.80;75.70
53268;DHT22;39156;51.176;6.738;2023-08-12T12:30:10;25.80;76.00
53268;DHT22;39156;51.176;6.738;2023-08-12T12:32:37;25.80;74.80
53268;DHT22;39156;51.176;6.738;2023-08-12T12:35:03;25.60;74.20
53268;DHT22;39156;51.176;6.738;2023-08-12T12:37:32;25.50;74.50
53268;DHT22;39156;51.176;6.738;2023-08-12T12:39:58;25.30;74.30
53268;DHT22;39156;51.176;6.738;2023-08-12T12:42:24;25.10;74.70
53268;DHT22;39156;51.176;6.738;2023-08-12T12:44:50;24.90;75.10
53268;DHT22;39156;51.176;6.738;2023-08-12T12:47:16;24.70;75.40
53268;DHT22;39156;51.176;6.738;2023-08-12T12:49:42;24.50;75.70
53268;DHT22;39156;51.176;6.738;2023-08-12T12:52:08;24.30;76.30
53268;DHT22;39156;51.176;6.738;2023-08-12T12:54:34;24.10;76.70
53268;DHT22;39156;51.176;6.738;2023-08-12T12:56:59;24.00;77.00
53268;DHT22;39156;51.176;6.738;2023-08-12T12:59:26;23.80;77.20
53268;DHT22;39156;51.176;6.738;2023-08-12T13:01:52;23.60;77.80
53268;DHT22;39156;51.176;6.738;2023-08-12T13:04:18;23.50;78.30
53268;DHT22;39156;51.176;6.738;2023-08-12T13:06:44;23.40;78.80
53268;DHT22;39156;51.176;6.738;2023-08-12T13:09:10;23.30;79.00
53268;DHT22;39156;51.176;6.738;2023-08-12T13:11:35;23.20;79.40
53268;DHT22;39156;51.176;6.738;2023-08-12T13:14:02;23.20;80.20
53268;DHT22;39156;51.176;6.738;2023-08-12T13:16:29;23.30;80.40
53268;DHT22;39156;51.176;6.738;2023-08-12T13:18:55;23.30;80.60
53268;DHT22;39156;51.176;6.738;2023-08-12T13:21:24;23.30;80.30
53268;DHT22;39156;51.176;6.738;2023-08-12T13:23:50;23.40;81.00
53268;DHT22;39156;51.176;6.738;2023-08-12T13:26:16;23.40;80.90
53268;DHT22;39156;51.176;6.738;2023-08-12T13:28:42;23.50;81.90
53268;DHT22;39156;51.176;6.738;2023-08-12T13:31:09;23.60;81.30
53268;DHT22;39156;51.176;6.738;2023-08-12T13:33:34;23.50;81.10
53268;DHT22;39156;51.176;6.738;2023-08-12T13:36:00;23.70;80.80
53268;DHT22;39156;51.176;6.738;2023-08-12T13:38:26;23.80;80.40
53268;DHT22;39156;51.176;6.738;2023-08-12T13:40:52;23.90;80.90
53268;DHT22;39156;51.176;6.738;2023-08-12T13:43:18;23.90;80.70
53268;DHT22;39156;51.176;6.738;2023-08-12T13:45:43;23.90;79.60
53268;DHT22;39156;51.176;6.738;2023-08-12T13:48:09;24.00;79.90
53268;DHT22;39156;51.176;6.738;2023-08-12T13:50:35;24.00;80.20
53268;DHT22;39156;51.176;6.738;2023-08-12T13:53:01;24.10;80.10
53268;DHT22;39156;51.176;6.738;2023-08-12T13:55:26;24.20;80.20
53268;DHT22;39156;51.176;6.738;2023-08-12T13:57:52;24.20;80.50
53268;DHT22;39156;51.176;6.738;2023-08-12T14:00:18;24.30;80.80
53268;DHT22;39156;51.176;6.738;2023-08-12T14:02:44;24.40;80.60
53268;DHT22;39156;51.176;6.738;2023-08-12T14:05:10;24.60;80.50
53268;DHT22;39156;51.176;6.738;2023-08-12T14:07:36;24.60;79.50
53268;DHT22;39156;51.176;6.738;2023-08-12T14:10:03;24.70;79.70
53268;DHT22;39156;51.176;6.738;2023-08-12T14:12:30;24.80;79.10
53268;DHT22;39156;51.176;6.738;2023-08-12T14:14:55;24.80;78.00
53268;DHT22;39156;51.176;6.738;2023-08-12T14:17:21;24.90;77.90
53268;DHT22;39156;51.176;6.738;2023-08-12T14:19:49;24.80;77.40
53268;DHT22;39156;51.176;6.738;2023-08-12T14:22:16;24.80;76.90
53268;DHT22;39156;51.176;6.738;2023-08-12T14:24:42;24.90;76.70
53268;DHT22;39156;51.176;6.738;2023-08-12T14:27:10;24.80;77.00
53268;DHT22;39156;51.176;6.738;2023-08-12T14:29:36;24.80;76.90
53268;DHT22;39156;51.176;6.738;2023-08-12T14:32:01;24.80;76.50
53268;DHT22;39156;51.176;6.738;2023-08-12T14:34:27;24.90;76.70
53268;DHT22;39156;51.176;6.738;2023-08-12T14:36:53;24.90;76.90
53268;DHT22;39156;51.176;6.738;2023-08-12T14:39:18;24.90;76.40
53268;DHT22;39156;51.176;6.738;2023-08-12T14:41:44;24.90;76.10
53268;DHT22;39156;51.176;6.738;2023-08-12T14:44:10;24.90;76.40
53268;DHT22;39156;51.176;6.738;2023-08-12T14:46:35;25.00;76.30
53268;DHT22;39156;51.176;6.738;2023-08-12T14:49:01;24.90;76.40
53268;DHT22;39156;51.176;6.738;2023-08-12T14:51:30;25.00;75.80
53268;DHT22;39156;51.176;6.738;2023-08-12T14:53:55;24.90;75.70
53268;DHT22;39156;51.176;6.738;2023-08-12T14:56:21;25.00;76.00
53268;DHT22;39156;51.176;6.738;2023-08-12T14:58:47;24.90;75.30
53268;DHT22;39156;51.176;6.738;2023-08-12T15:01:13;24.90;75.20
53268;DHT22;39156;51.176;6.738;2023-08-12T15:03:39;25.00;74.70
53268;DHT22;39156;51.176;6.738;2023-08-12T15:06:04;25.00;74.00
53268;DHT22;39156;51.176;6.738;2023-08-12T15:08:31;25.00;74.40
53268;DHT22;39156;51.176;6.738;2023-08-12T15:10:57;24.90;72.70
53268;DHT22;39156;51.176;6.738;2023-08-12T15:13:24;25.00;72.50
53268;DHT22;39156;51.176;6.738;2023-08-12T15:15:50;25.00;71.50
53268;DHT22;39156;51.176;6.738;2023-08-12T15:18:17;24.90;71.70
53268;DHT22;39156;51.176;6.738;2023-08-12T15:20:43;24.90;71.00
53268;DHT22;39156;51.176;6.738;2023-08-12T15:23:09;24.90;70.20
53268;DHT22;39156;51.176;6.738;2023-08-12T15:25:35;24.80;69.90
53268;DHT22;39156;51.176;6.738;2023-08-12T15:28:01;24.80;71.30
53268;DHT22;39156;51.176;6.738;2023-08-12T15:30:34;24.70;70.10
53268;DHT22;39156;51.176;6.738;2023-08-12T15:33:00;24.70;68.70